.
WxDataArchive / Data Records for 2013-06-16
2013-06-15 June 2013 2013-06-17

Data Records for Sunday, 16 June 2013

Time	Temp	Chill	HIndex	Humid	Dewpt	 Wind 	HiWind	WindDir	Rain 	Barom 
-----	----	-----	------	-----	-----	------	------	-------	-----	----- 
00:00	65.6	65.6	65.6	86	61.3	0	0	---	0.00	29.912 
00:05	65.5	65.5	65.5	86	61.2	0	0	---	0.00	29.912 
00:10	65.5	65.5	65.5	87	61.5	0	0	---	0.00	29.912 
00:15	65.3	65.3	65.3	87	61.3	0	0	---	0.00	29.903 
00:20	65.3	65.3	65.3	87	61.3	0	1	68	0.00	29.903 
00:25	65.2	65.2	65.2	87	61.2	0	0	---	0.00	29.903 
00:30	65.0	65.0	65.0	87	61.0	0	0	---	0.00	29.901 
00:35	64.7	64.7	64.7	87	60.7	0	0	---	0.00	29.901 
00:40	64.5	64.5	64.5	88	60.9	0	0	---	0.00	29.901 
00:45	64.3	64.3	64.3	88	60.7	0	0	---	0.00	29.891 
00:50	64.3	64.3	64.3	88	60.7	0	0	---	0.00	29.891 
00:55	64.3	64.3	64.3	88	60.7	0	0	---	0.00	29.891 
01:00	64.2	64.2	64.2	88	60.6	0	0	---	0.00	29.889 
01:05	64.2	64.2	64.2	89	60.9	0	0	---	0.00	29.889 
01:10	64.0	64.0	64.0	89	60.7	0	0	---	0.00	29.889 
01:15	64.0	64.0	64.0	89	60.7	0	0	---	0.00	29.892 
01:20	64.2	64.2	64.2	89	60.9	0	0	---	0.00	29.892 
01:25	64.3	64.3	64.3	90	61.3	0	0	---	0.00	29.892 
01:30	64.5	64.5	64.5	90	61.5	0	0	---	0.00	29.895 
01:35	64.5	64.5	64.5	90	61.5	0	0	---	0.00	29.895 
01:40	64.7	64.7	64.7	90	61.7	0	1	68	0.00	29.895 
01:45	64.8	64.8	64.8	90	61.8	0	0	---	0.00	29.894 
01:50	65.0	65.0	65.0	90	62.0	0	1	68	0.00	29.894 
01:55	65.2	65.2	65.2	89	61.9	0	1	68	0.00	29.894 
02:00	65.3	65.3	65.3	89	62.0	0	0	---	0.00	29.890 
02:05	65.5	65.5	65.5	89	62.2	0	1	68	0.00	29.890 
02:10	65.5	65.5	65.5	88	61.8	0	1	68	0.00	29.890 
02:15	65.6	65.6	65.6	88	61.9	0	1	68	0.00	29.876 
02:20	65.6	65.6	65.6	88	61.9	0	1	68	0.00	29.876 
02:25	65.8	65.8	65.8	88	62.1	0	0	---	0.00	29.876 
02:30	66.0	66.0	66.0	88	62.3	0	1	68	0.00	29.875 
02:35	66.3	66.3	66.3	88	62.6	0	1	68	0.00	29.875 
02:40	66.3	66.3	66.3	88	62.6	0	1	68	0.00	29.875 
02:45	66.3	66.3	66.3	88	62.6	0	1	68	0.00	29.870 
02:50	66.3	66.3	66.3	88	62.6	0	1	68	0.00	29.870 
02:55	66.3	66.3	66.3	88	62.6	0	1	68	0.00	29.870 
03:00	66.3	66.3	66.3	88	62.6	0	1	68	0.00	29.876 
03:05	66.3	66.3	66.3	88	62.6	0	1	68	0.00	29.876 
03:10	66.4	66.4	66.4	88	62.7	0	3	292	0.00	29.876 
03:15	66.8	66.8	66.8	88	63.1	0	2	292	0.00	29.869 
03:20	67.1	67.1	67.1	87	63.1	1	4	270	0.00	29.869 
03:25	67.4	67.4	67.4	87	63.4	0	2	270	0.00	29.869 
03:30	67.8	67.8	67.8	86	63.5	0	2	270	0.00	29.871 
03:35	68.1	68.1	68.1	86	63.7	0	2	270	0.00	29.871 
03:40	68.3	68.3	68.3	85	63.6	1	4	292	0.00	29.871 
03:45	68.6	68.6	68.6	86	64.2	1	5	292	0.01	29.875 
03:50	68.6	68.6	68.6	87	64.6	2	7	270	0.01	29.875 
03:55	68.4	68.4	68.4	88	64.7	2	5	270	0.02	29.875 
04:00	68.1	68.1	68.1	89	64.7	1	4	270	0.01	29.871 
04:05	67.9	67.9	67.9	89	64.5	1	3	270	0.00	29.871 
04:10	67.4	67.4	67.4	89	64.0	1	4	270	0.00	29.871 
04:15	67.3	67.3	67.3	90	64.3	0	1	270	0.01	29.848 
04:20	67.1	67.1	67.1	90	64.1	0	3	270	0.00	29.848 
04:25	67.1	67.1	67.1	90	64.1	0	2	270	0.00	29.848 
04:30	67.1	67.1	67.1	90	64.1	0	1	270	0.00	29.856 
04:35	67.1	67.1	67.1	90	64.1	0	1	270	0.00	29.856 
04:40	67.1	67.1	67.1	91	64.4	0	1	270	0.00	29.856 
04:45	66.9	66.9	66.9	91	64.2	0	0	---	0.00	29.862 
04:50	66.9	66.9	66.9	91	64.2	0	0	---	0.00	29.862 
04:55	67.1	67.1	67.1	91	64.4	0	1	270	0.00	29.862 
05:00	67.1	67.1	67.1	92	64.7	0	0	---	0.00	29.868 
05:05	67.1	67.1	67.1	92	64.7	0	0	---	0.00	29.868 
05:10	67.1	67.1	67.1	92	64.7	0	0	---	0.00	29.868 
05:15	66.9	66.9	66.9	92	64.5	0	0	---	0.00	29.869 
05:20	66.9	66.9	66.9	92	64.5	0	0	---	0.00	29.869 
05:25	66.9	66.9	66.9	92	64.5	0	0	---	0.00	29.869 
05:30	66.9	66.9	66.9	92	64.5	0	0	---	0.00	29.885 
05:35	66.9	66.9	66.9	92	64.5	0	0	---	0.00	29.885 
05:40	66.9	66.9	66.9	92	64.5	0	1	270	0.00	29.885 
05:45	66.9	66.9	66.9	92	64.5	0	1	270	0.00	29.885 
05:50	66.8	66.8	66.8	92	64.4	0	2	270	0.00	29.885 
05:55	66.8	66.8	66.8	93	64.7	0	0	---	0.01	29.885 
06:00	66.8	66.8	66.8	93	64.7	0	1	270	0.00	29.879 
06:05	66.6	66.6	66.6	93	64.5	0	1	270	0.00	29.879 
06:10	66.6	66.6	66.6	93	64.5	0	1	270	0.00	29.879 
06:15	66.4	66.4	66.4	93	64.3	0	1	270	0.00	29.882 
06:20	66.4	66.4	66.4	93	64.3	0	1	270	0.00	29.882 
06:25	66.4	66.4	66.4	93	64.3	0	0	---	0.00	29.882 
06:30	66.3	66.3	66.3	93	64.2	0	1	270	0.00	29.884 
06:35	66.3	66.3	66.3	93	64.2	0	1	270	0.00	29.884 
06:40	66.3	66.3	66.3	93	64.2	0	0	---	0.00	29.884 
06:45	66.1	66.1	66.1	93	64.0	0	1	270	0.00	29.873 
06:50	66.1	66.1	66.1	93	64.0	0	1	270	0.00	29.873 
06:55	66.1	66.1	66.1	93	64.0	0	0	---	0.00	29.873 
07:00	66.1	66.1	66.1	93	64.0	0	2	292	0.00	29.869 
07:05	66.1	66.1	66.1	93	64.0	0	1	292	0.00	29.869 
07:10	66.1	66.1	66.1	93	64.0	0	1	292	0.00	29.869 
07:15	66.1	66.1	66.1	93	64.0	0	1	292	0.00	29.864 
07:20	66.1	66.1	66.1	93	64.0	0	1	292	0.00	29.864 
07:25	66.1	66.1	66.1	93	64.0	0	1	292	0.00	29.864 
07:30	66.1	66.1	66.1	93	64.0	0	1	292	0.00	29.867 
07:35	66.3	66.3	66.3	92	63.9	0	1	292	0.00	29.867 
07:40	66.3	66.3	66.3	92	63.9	0	1	292	0.00	29.867 
07:45	66.4	66.4	66.4	92	64.0	0	2	292	0.00	29.867 
07:50	66.4	66.4	66.4	92	64.0	0	2	292	0.00	29.867 
07:55	66.6	66.6	66.6	92	64.2	0	1	292	0.00	29.867 
08:00	66.8	66.8	66.8	92	64.4	1	4	292	0.00	29.872 
08:05	66.9	66.9	66.9	91	64.2	0	2	292	0.00	29.872 
08:10	67.1	67.1	67.1	91	64.4	1	4	270	0.00	29.872 
08:15	67.3	67.3	67.3	90	64.3	1	3	270	0.00	29.881 
08:20	67.4	67.4	67.4	90	64.4	0	2	270	0.00	29.881 
08:25	67.4	67.4	67.4	89	64.0	1	3	270	0.00	29.881 
08:30	67.4	67.4	67.4	89	64.0	1	3	270	0.01	29.886 
08:35	67.1	67.1	67.1	89	63.7	1	3	292	0.01	29.886 
08:40	66.8	66.8	66.8	90	63.8	1	2	315	0.00	29.886 
08:45	66.6	66.6	66.6	90	63.6	0	2	315	0.00	29.891 
08:50	66.6	66.6	66.6	91	63.9	1	4	270	0.00	29.891 
08:55	66.6	66.6	66.6	91	63.9	0	2	270	0.00	29.891 
09:00	66.8	66.8	66.8	91	64.1	1	5	270	0.00	29.888 
09:05	66.8	66.8	66.8	91	64.1	0	2	270	0.00	29.888 
09:10	66.9	66.9	66.9	91	64.2	0	1	270	0.00	29.888 
09:15	67.1	67.1	67.1	92	64.7	1	3	270	0.00	29.894 
09:20	67.3	67.3	67.3	92	64.9	0	2	270	0.00	29.894 
09:25	67.6	67.6	67.6	92	65.2	0	3	270	0.00	29.894 
09:30	67.6	67.6	67.6	91	64.9	0	2	292	0.00	29.892 
09:35	67.6	67.6	67.6	91	64.9	1	4	292	0.00	29.892 
09:40	67.8	67.8	67.8	91	65.1	1	3	292	0.00	29.892 
09:45	68.3	68.3	68.3	90	65.2	1	4	292	0.00	29.889 
09:50	68.6	68.6	68.6	89	65.2	1	4	292	0.00	29.889 
09:55	68.9	68.9	68.9	88	65.2	1	3	292	0.00	29.889 
10:00	69.4	69.4	69.4	87	65.4	1	4	292	0.00	29.889 
10:05	69.9	69.9	69.9	85	65.2	1	4	270	0.00	29.889 
10:10	70.4	70.4	70.4	84	65.3	2	5	270	0.00	29.889 
10:15	71.1	71.1	71.1	83	65.7	1	4	248	0.00	29.891 
10:20	71.6	71.6	71.6	81	65.4	2	4	270	0.00	29.891 
10:25	72.1	72.1	72.1	79	65.2	2	4	270	0.00	29.891 
10:30	72.3	72.3	72.3	77	64.7	2	5	270	0.00	29.885 
10:35	72.8	72.8	72.8	77	65.2	2	6	270	0.00	29.885 
10:40	73.2	73.2	73.2	77	65.5	2	4	292	0.00	29.885 
10:45	73.5	73.5	73.5	75	65.1	2	5	292	0.00	29.884 
10:50	73.7	73.7	73.7	74	64.9	3	5	292	0.00	29.884 
10:55	74.0	74.0	74.0	74	65.2	2	6	270	0.00	29.884 
11:00	74.2	74.2	74.2	74	65.4	2	7	270	0.00	29.886 
11:05	74.2	74.2	74.2	73	65.0	3	5	270	0.00	29.886 
11:10	74.2	74.2	74.2	73	65.0	3	5	270	0.00	29.886 
11:15	74.0	74.0	74.0	73	64.8	3	5	270	0.00	29.883 
11:20	74.4	74.4	74.4	74	65.6	2	4	270	0.00	29.883 
11:25	74.7	74.7	74.7	74	65.8	2	5	270	0.00	29.883 
11:30	75.1	75.1	76.5	73	65.8	2	4	270	0.00	29.886 
11:35	75.1	75.1	76.7	71	65.0	3	6	292	0.00	29.886 
11:40	75.1	75.1	76.5	73	65.8	2	5	292	0.00	29.886 
11:45	75.3	75.3	76.9	71	65.2	2	7	292	0.00	29.890 
11:50	75.3	75.3	76.9	71	65.2	2	5	270	0.00	29.890 
11:55	75.4	75.4	76.9	72	65.7	2	5	270	0.00	29.890 
12:00	75.8	75.8	77.4	71	65.7	2	5	270	0.00	29.888 
12:05	76.1	76.1	77.7	71	66.0	2	5	270	0.00	29.888 
12:10	76.7	76.7	78.4	70	66.2	2	5	270	0.00	29.888 
12:15	77.0	77.0	78.8	70	66.4	2	5	270	0.00	29.890 
12:20	77.2	77.2	79.0	69	66.2	3	5	292	0.00	29.890 
12:25	77.2	77.2	79.0	68	65.8	1	4	292	0.00	29.890 
12:30	76.8	76.8	78.6	69	65.8	1	2	292	0.00	29.890 
12:35	77.0	77.0	78.8	68	65.6	2	5	292	0.00	29.890 
12:40	77.0	77.0	78.8	68	65.6	3	6	292	0.00	29.890 
12:45	77.2	77.2	79.0	68	65.8	2	4	292	0.00	29.890 
12:50	77.2	77.2	79.0	68	65.8	1	4	315	0.00	29.890 
12:55	77.2	77.2	79.0	68	65.8	2	5	292	0.00	29.890 
13:00	77.0	77.0	78.8	69	66.0	1	3	315	0.00	29.890 
13:05	77.2	77.2	79.0	69	66.2	2	5	292	0.00	29.890 
13:10	77.6	77.6	79.5	69	66.6	2	4	292	0.00	29.890 
13:15	77.9	77.9	79.8	68	66.5	2	5	270	0.00	29.888 
13:20	78.1	78.1	80.1	68	66.7	2	4	270	0.00	29.888 
13:25	77.9	77.9	79.8	67	66.0	2	4	270	0.00	29.888 
13:30	77.6	77.6	79.5	67	65.8	2	5	270	0.00	29.888 
13:35	77.4	77.4	79.2	69	66.4	2	6	315	0.00	29.888 
13:40	77.7	77.7	79.6	68	66.3	1	5	315	0.00	29.888 
13:45	77.9	77.9	79.8	66	65.6	3	5	292	0.00	29.886 
13:50	77.7	77.7	79.6	67	65.8	2	7	270	0.00	29.886 
13:55	77.4	77.4	79.2	68	66.0	1	5	292	0.00	29.886 
14:00	77.6	77.6	79.5	68	66.2	2	5	315	0.00	29.887 
14:05	77.2	77.2	79.0	68	65.8	1	4	270	0.00	29.887 
14:10	77.0	77.0	78.8	69	66.0	1	2	270	0.00	29.887 
14:15	77.0	77.0	78.8	69	66.0	1	5	292	0.00	29.887 
14:20	76.7	76.7	78.5	68	65.3	2	6	292	0.00	29.887 
14:25	77.0	77.0	78.8	69	66.0	2	4	292	0.00	29.887 
14:30	77.2	77.2	79.0	68	65.8	1	3	292	0.00	29.886 
14:35	77.2	77.2	79.0	68	65.8	1	5	292	0.00	29.886 
14:40	77.4	77.4	79.2	68	66.0	1	4	292	0.00	29.886 
14:45	77.9	77.9	79.8	66	65.6	3	11	292	0.00	29.884 
14:50	78.5	78.5	80.5	66	66.2	2	4	270	0.00	29.884 
14:55	78.8	78.8	80.7	64	65.6	2	4	270	0.00	29.884 
15:00	78.8	78.8	80.7	64	65.6	1	4	270	0.00	29.883 
15:05	78.6	78.6	80.6	65	65.8	1	7	338	0.00	29.883 
15:10	78.5	78.5	80.5	66	66.2	1	4	292	0.00	29.883 
15:15	78.3	78.3	80.2	65	65.5	1	4	292	0.00	29.877 
15:20	78.5	78.5	80.4	64	65.3	3	6	292	0.00	29.877 
15:25	78.6	78.6	80.5	64	65.4	2	4	270	0.00	29.877 
15:30	79.0	79.0	81.0	65	66.2	2	5	270	0.00	29.875 
15:35	78.8	78.8	80.7	63	65.1	3	7	270	0.00	29.875 
15:40	78.8	78.8	80.7	64	65.6	2	6	270	0.00	29.875 
15:45	78.6	78.6	80.4	63	64.9	2	4	270	0.00	29.879 
15:50	78.6	78.6	80.4	63	64.9	2	6	270	0.00	29.879 
15:55	78.5	78.5	80.4	64	65.3	2	6	270	0.00	29.879 
16:00	78.6	78.6	80.6	65	65.8	1	5	270	0.00	29.881 
16:05	78.8	78.8	80.7	64	65.6	2	5	270	0.00	29.881 
16:10	78.6	78.6	80.5	64	65.4	2	9	292	0.00	29.881 
16:15	78.6	78.6	80.6	66	66.3	1	3	292	0.00	29.880 
16:20	79.0	79.0	81.0	65	66.2	2	4	292	0.00	29.880 
16:25	78.6	78.6	80.6	65	65.8	2	4	270	0.00	29.880 
16:30	78.3	78.3	80.2	66	66.0	1	3	270	0.00	29.884 
16:35	77.9	77.9	79.8	66	65.6	1	4	270	0.00	29.884 
16:40	77.6	77.6	79.5	67	65.8	1	3	270	0.00	29.884 
16:45	77.4	77.4	79.2	67	65.6	1	3	270	0.00	29.888 
16:50	76.8	76.8	78.6	64	63.7	1	3	248	0.00	29.888 
16:55	76.3	76.3	78.2	64	63.2	0	3	45	0.00	29.888 
17:00	76.0	76.0	77.8	66	63.8	1	3	270	0.00	29.889 
17:05	76.1	76.1	77.9	67	64.3	0	2	270	0.00	29.889 
17:10	76.8	76.8	78.6	68	65.4	0	2	270	0.00	29.889 
17:15	77.6	77.6	79.5	67	65.8	1	4	270	0.00	29.872 
17:20	78.5	78.5	80.5	67	66.6	1	3	270	0.00	29.872 
17:25	79.4	79.4	81.6	65	66.6	1	4	270	0.00	29.872 
17:30	79.9	79.9	82.1	64	66.6	1	4	292	0.00	29.870 
17:35	80.5	80.5	82.8	63	66.7	2	4	292	0.00	29.870 
17:40	80.5	80.5	82.5	61	65.8	3	6	270	0.00	29.870 
17:45	80.7	80.7	82.8	61	66.0	2	5	270	0.00	29.865 
17:50	80.5	80.5	82.2	58	64.3	3	6	270	0.00	29.865 
17:55	79.9	79.9	81.8	61	65.2	2	3	270	0.00	29.865 
18:00	79.8	79.8	81.8	62	65.6	1	4	270	0.00	29.869 
18:05	79.8	79.8	81.7	61	65.1	1	5	270	0.00	29.869 
18:10	79.6	79.6	81.4	61	64.9	1	5	270	0.00	29.869 
18:15	79.8	79.8	81.7	61	65.1	2	4	270	0.00	29.869 
18:20	79.8	79.8	81.7	61	65.1	1	3	270	0.00	29.869 
18:25	79.9	79.9	81.9	62	65.7	1	3	270	0.00	29.869 
18:30	79.2	79.2	81.4	66	66.8	1	3	248	0.00	29.871 
18:35	78.5	78.5	80.5	67	66.6	1	3	270	0.00	29.871 
18:40	78.5	78.5	80.5	67	66.6	1	3	270	0.00	29.871 
18:45	78.5	78.5	80.5	66	66.2	1	3	270	0.00	29.869 
18:50	78.5	78.5	80.5	67	66.6	1	3	270	0.00	29.869 
18:55	78.5	78.5	80.6	68	67.0	1	4	270	0.00	29.869 
19:00	78.5	78.5	80.5	67	66.6	1	4	270	0.00	29.868 
19:05	78.5	78.5	80.5	67	66.6	1	3	270	0.00	29.868 
19:10	78.5	78.5	80.5	66	66.2	1	4	270	0.00	29.868 
19:15	78.5	78.5	80.5	66	66.2	2	4	270	0.00	29.868 
19:20	78.5	78.5	80.5	67	66.6	1	3	270	0.00	29.868 
19:25	78.6	78.6	80.7	67	66.7	1	3	270	0.00	29.868 
19:30	78.6	78.6	80.6	66	66.3	1	4	270	0.00	29.869 
19:35	78.5	78.5	80.5	67	66.6	0	3	270	0.00	29.869 
19:40	78.3	78.3	80.3	67	66.4	1	3	270	0.00	29.869 
19:45	78.5	78.5	80.3	63	64.8	3	6	270	0.00	29.871 
19:50	78.6	78.6	80.4	62	64.5	2	7	292	0.00	29.871 
19:55	78.5	78.5	80.3	62	64.4	1	3	270	0.00	29.871 
20:00	78.3	78.3	80.1	62	64.2	1	3	270	0.00	29.872 
20:05	78.5	78.5	80.3	63	64.8	1	3	270	0.00	29.872 
20:10	78.3	78.3	80.1	63	64.6	2	4	270	0.00	29.872 
20:15	78.3	78.3	80.1	63	64.6	1	3	270	0.00	29.876 
20:20	78.1	78.1	79.9	64	64.9	0	2	270	0.00	29.876 
20:25	78.1	78.1	79.9	63	64.5	1	3	270	0.00	29.876 
20:30	77.9	77.9	79.7	64	64.7	1	3	270	0.00	29.879 
20:35	77.7	77.7	79.5	64	64.5	0	2	270	0.00	29.879 
20:40	77.6	77.6	79.4	65	64.9	1	3	270	0.00	29.879 
20:45	77.4	77.4	79.2	65	64.7	1	3	292	0.00	29.878 
20:50	77.4	77.4	79.2	65	64.7	0	3	292	0.00	29.878 
20:55	77.0	77.0	78.8	66	64.8	0	1	292	0.00	29.878 
21:00	76.8	76.8	78.6	66	64.6	0	0	---	0.00	29.873 
21:05	76.5	76.5	78.3	67	64.7	0	0	---	0.00	29.873 
21:10	76.3	76.3	78.1	67	64.5	0	0	---	0.00	29.873 
21:15	76.0	76.0	77.7	68	64.7	0	0	---	0.00	29.872 
21:20	75.6	75.6	77.3	69	64.7	0	0	---	0.00	29.872 
21:25	75.3	75.3	77.0	70	64.8	0	0	---	0.00	29.872 
21:30	74.9	74.9	74.9	71	64.8	0	0	---	0.00	29.876 
21:35	74.7	74.7	74.7	71	64.7	0	0	---	0.00	29.876 
21:40	74.6	74.6	74.6	72	65.0	0	0	---	0.00	29.876 
21:45	74.2	74.2	74.2	73	65.0	0	0	---	0.00	29.878 
21:50	74.0	74.0	74.0	73	64.8	0	0	---	0.00	29.878 
21:55	73.7	73.7	73.7	74	64.9	0	0	---	0.00	29.878 
22:00	73.5	73.5	73.5	74	64.7	0	0	---	0.00	29.883 
22:05	73.2	73.2	73.2	75	64.8	0	0	---	0.00	29.883 
22:10	72.8	72.8	72.8	76	64.8	0	0	---	0.00	29.883 
22:15	72.5	72.5	72.5	77	64.9	0	0	---	0.00	29.885 
22:20	72.3	72.3	72.3	78	65.0	0	0	---	0.00	29.885 
22:25	72.1	72.1	72.1	79	65.2	0	0	---	0.00	29.885 
22:30	72.0	72.0	72.0	79	65.1	0	0	---	0.00	29.887 
22:35	71.6	71.6	71.6	80	65.1	0	0	---	0.00	29.887 
22:40	71.5	71.5	71.5	81	65.4	0	0	---	0.00	29.887 
22:45	71.3	71.3	71.3	81	65.2	0	0	---	0.00	29.896 
22:50	71.1	71.1	71.1	82	65.3	0	0	---	0.00	29.896 
22:55	70.9	70.9	70.9	82	65.1	0	0	---	0.00	29.896 
23:00	70.8	70.8	70.8	83	65.4	0	0	---	0.00	29.896 
23:05	70.4	70.4	70.4	84	65.3	0	0	---	0.00	29.896 
23:10	70.3	70.3	70.3	84	65.2	0	0	---	0.00	29.896 
23:15	70.1	70.1	70.1	84	65.0	0	0	---	0.00	29.895 
23:20	69.9	69.9	69.9	85	65.2	0	0	---	0.00	29.895 
23:25	69.8	69.8	69.8	85	65.1	0	0	---	0.00	29.895 
23:30	69.4	69.4	69.4	86	65.0	0	0	---	0.00	29.888 
23:35	69.4	69.4	69.4	87	65.4	0	0	---	0.00	29.888 
23:40	69.3	69.3	69.3	87	65.3	0	0	---	0.00	29.888 
23:45	69.3	69.3	69.3	88	65.6	0	0	---	0.00	29.891 
23:50	69.1	69.1	69.1	88	65.4	0	0	---	0.00	29.891 
23:55	68.9	68.9	68.9	88	65.2	0	0	---	0.00	29.891 

CoCoRaHS
IN-AL-39
A2 Web Hosting
Creative Commons License
GoDaddy
search engine by freefind advanced

loaded 2018-11-19 11:00:28 • last modified 2010-11-18 10:43:29
Privacy PolicyDisclaimer
• wx.awcolley.com is powered by PmWiki v.2002016 •
• all content (unless otherwise noted) © 2018 A W Colley